sensor_id;sensor_type;location;lat;lon;timestamp;temperature;humidity
17333;DHT22;8784;50.94667800;7.08448400;2022-12-16T00:00:29;-5.30;99.90
17333;DHT22;8784;50.94667800;7.08448400;2022-12-16T00:02:58;-5.30;99.90
17333;DHT22;8784;50.94667800;7.08448400;2022-12-16T00:05:26;-5.30;99.90
17333;DHT22;8784;50.94667800;7.08448400;2022-12-16T00:07:53;-5.40;99.90
17333;DHT22;8784;50.94667800;7.08448400;2022-12-16T00:10:21;-5.40;99.90
17333;DHT22;8784;50.94667800;7.08448400;2022-12-16T00:12:49;-5.40;99.90
17333;DHT22;8784;50.94667800;7.08448400;2022-12-16T00:15:16;-5.40;99.90
17333;DHT22;8784;50.94667800;7.08448400;2022-12-16T00:17:43;-5.50;99.90
17333;DHT22;8784;50.94667800;7.08448400;2022-12-16T00:20:11;-5.50;99.90
17333;DHT22;8784;50.94667800;7.08448400;2022-12-16T00:22:38;-5.50;99.90
17333;DHT22;8784;50.94667800;7.08448400;2022-12-16T00:25:05;-5.60;99.90
17333;DHT22;8784;50.94667800;7.08448400;2022-12-16T00:27:32;-5.60;99.90
17333;DHT22;8784;50.94667800;7.08448400;2022-12-16T00:30:00;-5.60;99.90
17333;DHT22;8784;50.94667800;7.08448400;2022-12-16T00:32:27;-5.60;99.90
17333;DHT22;8784;50.94667800;7.08448400;2022-12-16T00:34:54;-5.70;99.90
17333;DHT22;8784;50.94667800;7.08448400;2022-12-16T00:37:21;-5.60;99.90
17333;DHT22;8784;50.94667800;7.08448400;2022-12-16T00:39:48;-5.30;99.90
17333;DHT22;8784;50.94667800;7.08448400;2022-12-16T00:42:15;-5.70;99.90
17333;DHT22;8784;50.94667800;7.08448400;2022-12-16T00:44:41;-5.70;99.90
17333;DHT22;8784;50.94667800;7.08448400;2022-12-16T00:47:10;-5.70;99.90
17333;DHT22;8784;50.94667800;7.08448400;2022-12-16T00:49:36;-5.70;99.90
17333;DHT22;8784;50.94667800;7.08448400;2022-12-16T00:52:04;-5.70;99.90
17333;DHT22;8784;50.94667800;7.08448400;2022-12-16T00:54:30;-5.80;99.90
17333;DHT22;8784;50.94667800;7.08448400;2022-12-16T00:56:58;-5.80;99.90
17333;DHT22;8784;50.94667800;7.08448400;2022-12-16T00:59:25;-5.80;99.90
17333;DHT22;8784;50.94667800;7.08448400;2022-12-16T01:01:51;-5.80;99.90
17333;DHT22;8784;50.94667800;7.08448400;2022-12-16T01:04:20;-5.80;99.90
17333;DHT22;8784;50.94667800;7.08448400;2022-12-16T01:06:46;-5.90;99.90
17333;DHT22;8784;50.94667800;7.08448400;2022-12-16T01:09:13;-5.90;99.90
17333;DHT22;8784;50.94667800;7.08448400;2022-12-16T01:11:40;-6.00;99.90
17333;DHT22;8784;50.94667800;7.08448400;2022-12-16T01:14:07;-6.10;99.90
17333;DHT22;8784;50.94667800;7.08448400;2022-12-16T01:16:34;-6.20;99.90
17333;DHT22;8784;50.94667800;7.08448400;2022-12-16T01:19:01;-6.20;99.90
17333;DHT22;8784;50.94667800;7.08448400;2022-12-16T01:21:30;-6.20;99.90
17333;DHT22;8784;50.94667800;7.08448400;2022-12-16T01:23:56;-6.20;99.90
17333;DHT22;8784;50.94667800;7.08448400;2022-12-16T01:26:24;-6.20;99.90
17333;DHT22;8784;50.94667800;7.08448400;2022-12-16T01:28:50;-6.20;99.90
17333;DHT22;8784;50.94667800;7.08448400;2022-12-16T01:31:18;-6.20;99.90
17333;DHT22;8784;50.94667800;7.08448400;2022-12-16T01:33:46;-5.90;99.90
17333;DHT22;8784;50.94667800;7.08448400;2022-12-16T01:36:13;-6.20;99.90
17333;DHT22;8784;50.94667800;7.08448400;2022-12-16T01:38:42;-6.00;99.90
17333;DHT22;8784;50.94667800;7.08448400;2022-12-16T01:41:10;-6.10;99.90
17333;DHT22;8784;50.94667800;7.08448400;2022-12-16T01:43:38;-6.10;99.90
17333;DHT22;8784;50.94667800;7.08448400;2022-12-16T01:46:08;-6.10;99.90
17333;DHT22;8784;50.94667800;7.08448400;2022-12-16T01:48:44;-6.10;99.90
17333;DHT22;8784;50.94667800;7.08448400;2022-12-16T01:51:17;-6.10;99.90
17333;DHT22;8784;50.94667800;7.08448400;2022-12-16T01:53:49;-6.10;99.90
17333;DHT22;8784;50.94667800;7.08448400;2022-12-16T01:56:18;-6.10;99.90
17333;DHT22;8784;50.94667800;7.08448400;2022-12-16T01:58:48;-6.00;99.90
17333;DHT22;8784;50.94667800;7.08448400;2022-12-16T02:01:15;-6.00;99.90
17333;DHT22;8784;50.94667800;7.08448400;2022-12-16T02:03:43;-6.00;99.90
17333;DHT22;8784;50.94667800;7.08448400;2022-12-16T02:06:10;-6.00;99.90
17333;DHT22;8784;50.94667800;7.08448400;2022-12-16T02:08:37;-5.90;99.90
17333;DHT22;8784;50.94667800;7.08448400;2022-12-16T02:11:13;-5.90;99.90
17333;DHT22;8784;50.94667800;7.08448400;2022-12-16T02:13:55;-5.90;99.90
17333;DHT22;8784;50.94667800;7.08448400;2022-12-16T02:16:29;-5.00;99.90
17333;DHT22;8784;50.94667800;7.08448400;2022-12-16T02:19:04;-5.90;99.90
17333;DHT22;8784;50.94667800;7.08448400;2022-12-16T02:21:55;-6.00;99.90
17333;DHT22;8784;50.94667800;7.08448400;2022-12-16T02:25:02;-6.00;99.90
17333;DHT22;8784;50.94667800;7.08448400;2022-12-16T02:27:44;-6.00;99.90
17333;DHT22;8784;50.94667800;7.08448400;2022-12-16T02:36:23;-6.10;99.90
17333;DHT22;8784;50.94667800;7.08448400;2022-12-16T02:38:56;-6.10;99.90
17333;DHT22;8784;50.94667800;7.08448400;2022-12-16T02:41:31;-6.20;99.90
17333;DHT22;8784;50.94667800;7.08448400;2022-12-16T02:44:02;-6.20;99.90
17333;DHT22;8784;50.94667800;7.08448400;2022-12-16T02:46:31;-6.20;99.90
17333;DHT22;8784;50.94667800;7.08448400;2022-12-16T02:49:08;-6.20;99.90
17333;DHT22;8784;50.94667800;7.08448400;2022-12-16T02:51:36;-6.20;99.90
17333;DHT22;8784;50.94667800;7.08448400;2022-12-16T02:54:05;-6.20;99.90
17333;DHT22;8784;50.94667800;7.08448400;2022-12-16T02:56:45;-6.30;99.90
17333;DHT22;8784;50.94667800;7.08448400;2022-12-16T02:59:19;-6.30;99.90
17333;DHT22;8784;50.94667800;7.08448400;2022-12-16T03:01:53;-6.30;99.90
17333;DHT22;8784;50.94667800;7.08448400;2022-12-16T03:04:28;-6.30;99.90
17333;DHT22;8784;50.94667800;7.08448400;2022-12-16T03:06:57;-6.30;99.90
17333;DHT22;8784;50.94667800;7.08448400;2022-12-16T03:09:28;-6.30;99.90
17333;DHT22;8784;50.94667800;7.08448400;2022-12-16T03:11:56;-6.30;99.90
17333;DHT22;8784;50.94667800;7.08448400;2022-12-16T03:14:28;-6.30;99.90
17333;DHT22;8784;50.94667800;7.08448400;2022-12-16T03:16:57;-6.30;99.90
17333;DHT22;8784;50.94667800;7.08448400;2022-12-16T03:19:26;-6.30;99.90
17333;DHT22;8784;50.94667800;7.08448400;2022-12-16T03:21:59;-6.30;99.90
17333;DHT22;8784;50.94667800;7.08448400;2022-12-16T03:24:28;-6.30;99.90
17333;DHT22;8784;50.94667800;7.08448400;2022-12-16T03:27:04;-6.30;99.90
17333;DHT22;8784;50.94667800;7.08448400;2022-12-16T03:29:37;-6.40;99.90
17333;DHT22;8784;50.94667800;7.08448400;2022-12-16T03:32:10;-6.30;99.90
17333;DHT22;8784;50.94667800;7.08448400;2022-12-16T03:34:43;-6.30;99.90
17333;DHT22;8784;50.94667800;7.08448400;2022-12-16T03:37:12;-6.30;99.90
17333;DHT22;8784;50.94667800;7.08448400;2022-12-16T03:39:42;-6.30;99.90
17333;DHT22;8784;50.94667800;7.08448400;2022-12-16T03:42:10;-6.30;99.90
17333;DHT22;8784;50.94667800;7.08448400;2022-12-16T03:44:40;-6.40;99.90
17333;DHT22;8784;50.94667800;7.08448400;2022-12-16T03:47:07;-6.40;99.90
17333;DHT22;8784;50.94667800;7.08448400;2022-12-16T03:49:35;-6.40;99.90
17333;DHT22;8784;50.94667800;7.08448400;2022-12-16T03:52:04;-6.30;99.90
17333;DHT22;8784;50.94667800;7.08448400;2022-12-16T03:54:31;-6.30;99.90
17333;DHT22;8784;50.94667800;7.08448400;2022-12-16T03:56:58;-6.50;99.90
17333;DHT22;8784;50.94667800;7.08448400;2022-12-16T03:59:25;-6.40;99.90
17333;DHT22;8784;50.94667800;7.08448400;2022-12-16T04:01:51;-6.40;99.90
17333;DHT22;8784;50.94667800;7.08448400;2022-12-16T04:04:19;-6.40;99.90
17333;DHT22;8784;50.94667800;7.08448400;2022-12-16T04:06:46;-6.40;99.90
17333;DHT22;8784;50.94667800;7.08448400;2022-12-16T04:09:34;-6.40;99.90
17333;DHT22;8784;50.94667800;7.08448400;2022-12-16T04:12:01;-6.60;99.90
17333;DHT22;8784;50.94667800;7.08448400;2022-12-16T04:14:46;-6.60;99.90
17333;DHT22;8784;50.94667800;7.08448400;2022-12-16T04:17:30;-6.60;99.90
17333;DHT22;8784;50.94667800;7.08448400;2022-12-16T04:20:15;-6.60;99.90
17333;DHT22;8784;50.94667800;7.08448400;2022-12-16T04:23:00;-6.60;99.90
17333;DHT22;8784;50.94667800;7.08448400;2022-12-16T04:25:46;-6.60;99.90
17333;DHT22;8784;50.94667800;7.08448400;2022-12-16T04:28:13;-6.70;99.90
17333;DHT22;8784;50.94667800;7.08448400;2022-12-16T04:30:40;-6.40;99.90
17333;DHT22;8784;50.94667800;7.08448400;2022-12-16T04:33:08;-6.60;99.90
17333;DHT22;8784;50.94667800;7.08448400;2022-12-16T04:35:59;-6.70;99.90
17333;DHT22;8784;50.94667800;7.08448400;2022-12-16T04:38:44;-6.60;99.90
17333;DHT22;8784;50.94667800;7.08448400;2022-12-16T04:41:29;-6.70;99.90
17333;DHT22;8784;50.94667800;7.08448400;2022-12-16T04:44:14;-6.60;99.90
17333;DHT22;8784;50.94667800;7.08448400;2022-12-16T04:46:58;-6.60;99.90
17333;DHT22;8784;50.94667800;7.08448400;2022-12-16T04:49:42;-6.70;99.90
17333;DHT22;8784;50.94667800;7.08448400;2022-12-16T04:52:26;-6.60;99.90
17333;DHT22;8784;50.94667800;7.08448400;2022-12-16T04:55:25;-6.60;99.90
17333;DHT22;8784;50.94667800;7.08448400;2022-12-16T04:58:11;-6.70;99.90
17333;DHT22;8784;50.94667800;7.08448400;2022-12-16T05:00:56;-6.70;99.90
17333;DHT22;8784;50.94667800;7.08448400;2022-12-16T05:03:40;-6.80;99.90
17333;DHT22;8784;50.94667800;7.08448400;2022-12-16T05:06:24;-6.80;99.90
17333;DHT22;8784;50.94667800;7.08448400;2022-12-16T05:09:09;-6.80;99.90
17333;DHT22;8784;50.94667800;7.08448400;2022-12-16T05:11:53;-6.80;99.90
17333;DHT22;8784;50.94667800;7.08448400;2022-12-16T05:14:38;-6.90;99.90
17333;DHT22;8784;50.94667800;7.08448400;2022-12-16T05:17:23;-6.30;99.90
17333;DHT22;8784;50.94667800;7.08448400;2022-12-16T05:20:08;-6.80;99.90
17333;DHT22;8784;50.94667800;7.08448400;2022-12-16T05:22:54;-6.80;99.90
17333;DHT22;8784;50.94667800;7.08448400;2022-12-16T05:25:38;-6.80;99.90
17333;DHT22;8784;50.94667800;7.08448400;2022-12-16T05:28:22;-6.80;99.90
17333;DHT22;8784;50.94667800;7.08448400;2022-12-16T05:31:08;-6.80;99.90
17333;DHT22;8784;50.94667800;7.08448400;2022-12-16T05:33:53;-6.80;99.90
17333;DHT22;8784;50.94667800;7.08448400;2022-12-16T05:36:37;-6.70;99.90
17333;DHT22;8784;50.94667800;7.08448400;2022-12-16T05:39:21;-6.70;99.90
17333;DHT22;8784;50.94667800;7.08448400;2022-12-16T05:42:05;-6.80;99.90
17333;DHT22;8784;50.94667800;7.08448400;2022-12-16T05:44:49;-6.90;99.90
17333;DHT22;8784;50.94667800;7.08448400;2022-12-16T05:47:35;-6.80;99.90
17333;DHT22;8784;50.94667800;7.08448400;2022-12-16T05:50:19;-6.70;99.90
17333;DHT22;8784;50.94667800;7.08448400;2022-12-16T05:53:03;-6.90;99.90
17333;DHT22;8784;50.94667800;7.08448400;2022-12-16T05:55:48;-6.90;99.90
17333;DHT22;8784;50.94667800;7.08448400;2022-12-16T05:58:32;-6.90;99.90
17333;DHT22;8784;50.94667800;7.08448400;2022-12-16T06:01:16;-6.90;99.90
17333;DHT22;8784;50.94667800;7.08448400;2022-12-16T06:04:01;-7.00;99.90
17333;DHT22;8784;50.94667800;7.08448400;2022-12-16T06:06:46;-6.90;99.90
17333;DHT22;8784;50.94667800;7.08448400;2022-12-16T06:09:30;-6.90;99.90
17333;DHT22;8784;50.94667800;7.08448400;2022-12-16T06:12:15;-6.90;99.90
17333;DHT22;8784;50.94667800;7.08448400;2022-12-16T06:15:14;-6.90;99.90
17333;DHT22;8784;50.94667800;7.08448400;2022-12-16T06:18:10;-6.80;99.90
17333;DHT22;8784;50.94667800;7.08448400;2022-12-16T06:20:55;-6.90;99.90
17333;DHT22;8784;50.94667800;7.08448400;2022-12-16T06:23:40;-6.80;99.90
17333;DHT22;8784;50.94667800;7.08448400;2022-12-16T06:26:24;-6.90;99.90
17333;DHT22;8784;50.94667800;7.08448400;2022-12-16T06:29:08;-6.90;99.90
17333;DHT22;8784;50.94667800;7.08448400;2022-12-16T06:31:52;-7.00;99.90
17333;DHT22;8784;50.94667800;7.08448400;2022-12-16T06:34:37;-7.00;99.90
17333;DHT22;8784;50.94667800;7.08448400;2022-12-16T06:37:23;-7.10;99.90
17333;DHT22;8784;50.94667800;7.08448400;2022-12-16T06:40:09;-7.10;99.90
17333;DHT22;8784;50.94667800;7.08448400;2022-12-16T06:42:53;-7.10;99.90
17333;DHT22;8784;50.94667800;7.08448400;2022-12-16T06:45:37;-7.10;99.90
17333;DHT22;8784;50.94667800;7.08448400;2022-12-16T06:48:21;-7.10;99.90
17333;DHT22;8784;50.94667800;7.08448400;2022-12-16T06:51:05;-7.00;99.90
17333;DHT22;8784;50.94667800;7.08448400;2022-12-16T06:53:51;-6.90;99.90
17333;DHT22;8784;50.94667800;7.08448400;2022-12-16T06:56:35;-6.90;99.90
17333;DHT22;8784;50.94667800;7.08448400;2022-12-16T06:59:19;-6.80;99.90
17333;DHT22;8784;50.94667800;7.08448400;2022-12-16T07:02:04;-6.80;99.90
17333;DHT22;8784;50.94667800;7.08448400;2022-12-16T07:04:53;-6.90;99.90
17333;DHT22;8784;50.94667800;7.08448400;2022-12-16T07:07:38;-6.90;99.90
17333;DHT22;8784;50.94667800;7.08448400;2022-12-16T07:10:23;-6.90;99.90
17333;DHT22;8784;50.94667800;7.08448400;2022-12-16T07:13:08;-6.90;99.90
17333;DHT22;8784;50.94667800;7.08448400;2022-12-16T07:15:52;-6.80;99.90
17333;DHT22;8784;50.94667800;7.08448400;2022-12-16T07:18:36;-6.90;99.90
17333;DHT22;8784;50.94667800;7.08448400;2022-12-16T07:21:21;-6.80;99.90
17333;DHT22;8784;50.94667800;7.08448400;2022-12-16T07:24:05;-6.70;99.90
17333;DHT22;8784;50.94667800;7.08448400;2022-12-16T07:26:51;-6.60;99.90
17333;DHT22;8784;50.94667800;7.08448400;2022-12-16T07:29:35;-6.50;99.90
17333;DHT22;8784;50.94667800;7.08448400;2022-12-16T07:32:20;-6.50;99.90
17333;DHT22;8784;50.94667800;7.08448400;2022-12-16T07:35:05;-6.50;99.90
17333;DHT22;8784;50.94667800;7.08448400;2022-12-16T07:37:49;-6.40;99.90
17333;DHT22;8784;50.94667800;7.08448400;2022-12-16T07:40:34;-6.40;99.90
17333;DHT22;8784;50.94667800;7.08448400;2022-12-16T07:43:19;-6.30;99.90
17333;DHT22;8784;50.94667800;7.08448400;2022-12-16T07:46:04;-6.30;99.90
17333;DHT22;8784;50.94667800;7.08448400;2022-12-16T07:48:48;-6.20;99.90
17333;DHT22;8784;50.94667800;7.08448400;2022-12-16T07:51:32;-6.20;99.90
17333;DHT22;8784;50.94667800;7.08448400;2022-12-16T07:54:16;-6.20;99.90
17333;DHT22;8784;50.94667800;7.08448400;2022-12-16T07:57:01;-6.10;99.90
17333;DHT22;8784;50.94667800;7.08448400;2022-12-16T07:59:46;-6.00;99.90
17333;DHT22;8784;50.94667800;7.08448400;2022-12-16T08:02:30;-5.90;99.90
17333;DHT22;8784;50.94667800;7.08448400;2022-12-16T08:05:15;-5.90;99.90
17333;DHT22;8784;50.94667800;7.08448400;2022-12-16T08:07:59;-6.00;99.90
17333;DHT22;8784;50.94667800;7.08448400;2022-12-16T08:10:43;-6.10;99.90
17333;DHT22;8784;50.94667800;7.08448400;2022-12-16T08:13:28;-6.20;99.90
17333;DHT22;8784;50.94667800;7.08448400;2022-12-16T08:16:13;-6.20;99.90
17333;DHT22;8784;50.94667800;7.08448400;2022-12-16T08:18:58;-6.20;99.90
17333;DHT22;8784;50.94667800;7.08448400;2022-12-16T08:21:42;-6.20;99.90
17333;DHT22;8784;50.94667800;7.08448400;2022-12-16T08:24:27;-6.10;99.90
17333;DHT22;8784;50.94667800;7.08448400;2022-12-16T08:27:26;-6.00;99.90
17333;DHT22;8784;50.94667800;7.08448400;2022-12-16T08:30:11;-6.00;99.90
17333;DHT22;8784;50.94667800;7.08448400;2022-12-16T08:32:59;-5.90;99.90
17333;DHT22;8784;50.94667800;7.08448400;2022-12-16T08:35:43;-5.90;99.90
17333;DHT22;8784;50.94667800;7.08448400;2022-12-16T08:38:28;-5.80;99.90
17333;DHT22;8784;50.94667800;7.08448400;2022-12-16T08:41:12;-5.70;99.90
17333;DHT22;8784;50.94667800;7.08448400;2022-12-16T08:43:56;-5.60;99.90
17333;DHT22;8784;50.94667800;7.08448400;2022-12-16T08:46:41;-5.60;99.90
17333;DHT22;8784;50.94667800;7.08448400;2022-12-16T08:49:27;-5.50;99.90
17333;DHT22;8784;50.94667800;7.08448400;2022-12-16T08:52:11;-5.30;99.90
17333;DHT22;8784;50.94667800;7.08448400;2022-12-16T08:54:55;-5.20;99.90
17333;DHT22;8784;50.94667800;7.08448400;2022-12-16T08:57:39;-5.10;99.90
17333;DHT22;8784;50.94667800;7.08448400;2022-12-16T09:00:24;-5.00;99.90
17333;DHT22;8784;50.94667800;7.08448400;2022-12-16T09:03:08;-4.80;99.90
17333;DHT22;8784;50.94667800;7.08448400;2022-12-16T09:05:58;-4.70;99.90
17333;DHT22;8784;50.94667800;7.08448400;2022-12-16T09:08:42;-4.60;99.90
17333;DHT22;8784;50.94667800;7.08448400;2022-12-16T09:11:27;-4.50;99.90
17333;DHT22;8784;50.94667800;7.08448400;2022-12-16T09:14:12;-4.40;99.90
17333;DHT22;8784;50.94667800;7.08448400;2022-12-16T09:16:56;-4.30;99.90
17333;DHT22;8784;50.94667800;7.08448400;2022-12-16T09:19:40;-4.20;99.90
17333;DHT22;8784;50.94667800;7.08448400;2022-12-16T09:22:25;-4.10;99.90
17333;DHT22;8784;50.94667800;7.08448400;2022-12-16T09:25:10;-4.00;99.90
17333;DHT22;8784;50.94667800;7.08448400;2022-12-16T09:27:54;-4.00;99.90
17333;DHT22;8784;50.94667800;7.08448400;2022-12-16T09:30:38;-3.90;99.90
17333;DHT22;8784;50.94667800;7.08448400;2022-12-16T09:33:22;-3.70;99.90
17333;DHT22;8784;50.94667800;7.08448400;2022-12-16T09:36:07;-3.70;99.90
17333;DHT22;8784;50.94667800;7.08448400;2022-12-16T09:38:53;-3.60;99.90
17333;DHT22;8784;50.94667800;7.08448400;2022-12-16T09:42:00;-3.50;99.90
17333;DHT22;8784;50.94667800;7.08448400;2022-12-16T09:44:53;-3.40;99.90
17333;DHT22;8784;50.94667800;7.08448400;2022-12-16T09:47:48;-3.30;99.90
17333;DHT22;8784;50.94667800;7.08448400;2022-12-16T09:50:38;-3.10;99.90
17333;DHT22;8784;50.94667800;7.08448400;2022-12-16T09:53:22;-3.20;99.90
17333;DHT22;8784;50.94667800;7.08448400;2022-12-16T09:56:16;-3.20;99.90
17333;DHT22;8784;50.94667800;7.08448400;2022-12-16T09:59:08;-3.10;99.90
17333;DHT22;8784;50.94667800;7.08448400;2022-12-16T10:01:54;-3.20;99.90
17333;DHT22;8784;50.94667800;7.08448400;2022-12-16T10:04:39;-3.10;99.90
17333;DHT22;8784;50.94667800;7.08448400;2022-12-16T10:07:28;-3.00;99.90
17333;DHT22;8784;50.94667800;7.08448400;2022-12-16T10:10:18;-2.80;99.90
17333;DHT22;8784;50.94667800;7.08448400;2022-12-16T10:13:28;-2.70;99.90
17333;DHT22;8784;50.94667800;7.08448400;2022-12-16T10:16:23;-2.60;99.90
17333;DHT22;8784;50.94667800;7.08448400;2022-12-16T10:19:17;-2.50;99.90
17333;DHT22;8784;50.94667800;7.08448400;2022-12-16T10:22:09;-2.40;99.90
17333;DHT22;8784;50.94667800;7.08448400;2022-12-16T10:24:59;-2.40;99.90
17333;DHT22;8784;50.94667800;7.08448400;2022-12-16T10:27:46;-2.30;99.90
17333;DHT22;8784;50.94667800;7.08448400;2022-12-16T10:30:35;-2.20;99.90
17333;DHT22;8784;50.94667800;7.08448400;2022-12-16T10:33:23;-2.10;99.90
17333;DHT22;8784;50.94667800;7.08448400;2022-12-16T10:36:12;-2.00;99.90
17333;DHT22;8784;50.94667800;7.08448400;2022-12-16T10:39:00;-1.80;99.90
17333;DHT22;8784;50.94667800;7.08448400;2022-12-16T10:41:50;-1.70;99.90
17333;DHT22;8784;50.94667800;7.08448400;2022-12-16T10:44:49;-1.70;99.90
17333;DHT22;8784;50.94667800;7.08448400;2022-12-16T10:47:36;-1.60;99.90
17333;DHT22;8784;50.94667800;7.08448400;2022-12-16T10:50:17;-1.60;99.90
17333;DHT22;8784;50.94667800;7.08448400;2022-12-16T10:53:04;-1.50;99.90
17333;DHT22;8784;50.94667800;7.08448400;2022-12-16T10:56:02;-1.40;99.90
17333;DHT22;8784;50.94667800;7.08448400;2022-12-16T10:59:00;-1.50;99.90
17333;DHT22;8784;50.94667800;7.08448400;2022-12-16T11:01:56;-1.40;99.90
17333;DHT22;8784;50.94667800;7.08448400;2022-12-16T11:04:42;-1.40;99.90
17333;DHT22;8784;50.94667800;7.08448400;2022-12-16T11:07:31;-1.50;99.90
17333;DHT22;8784;50.94667800;7.08448400;2022-12-16T11:10:32;-1.40;99.90
17333;DHT22;8784;50.94667800;7.08448400;2022-12-16T11:13:21;-1.30;99.90
17333;DHT22;8784;50.94667800;7.08448400;2022-12-16T11:16:15;-1.20;99.90
17333;DHT22;8784;50.94667800;7.08448400;2022-12-16T11:19:01;-1.10;99.90
17333;DHT22;8784;50.94667800;7.08448400;2022-12-16T11:21:47;-1.00;99.90
17333;DHT22;8784;50.94667800;7.08448400;2022-12-16T11:24:31;-0.90;99.90
17333;DHT22;8784;50.94667800;7.08448400;2022-12-16T11:27:21;-0.90;99.90
17333;DHT22;8784;50.94667800;7.08448400;2022-12-16T11:30:15;-0.80;99.90
17333;DHT22;8784;50.94667800;7.08448400;2022-12-16T11:33:08;-0.70;99.90
17333;DHT22;8784;50.94667800;7.08448400;2022-12-16T11:36:04;-0.60;99.90
17333;DHT22;8784;50.94667800;7.08448400;2022-12-16T11:38:51;-0.50;99.90
17333;DHT22;8784;50.94667800;7.08448400;2022-12-16T11:41:37;-0.40;99.90
17333;DHT22;8784;50.94667800;7.08448400;2022-12-16T11:44:27;-0.30;99.90
17333;DHT22;8784;50.94667800;7.08448400;2022-12-16T11:47:30;-0.30;99.90
17333;DHT22;8784;50.94667800;7.08448400;2022-12-16T11:50:18;-0.50;99.90
17333;DHT22;8784;50.94667800;7.08448400;2022-12-16T11:53:04;-0.20;99.90
17333;DHT22;8784;50.94667800;7.08448400;2022-12-16T11:55:53;-0.10;99.90
17333;DHT22;8784;50.94667800;7.08448400;2022-12-16T11:58:42;-0.10;99.90
17333;DHT22;8784;50.94667800;7.08448400;2022-12-16T12:01:32;-0.10;99.90
17333;DHT22;8784;50.94667800;7.08448400;2022-12-16T12:04:18;-0.10;99.90
17333;DHT22;8784;50.94667800;7.08448400;2022-12-16T12:07:18;0.00;99.90
17333;DHT22;8784;50.94667800;7.08448400;2022-12-16T12:10:14;0.10;99.90
17333;DHT22;8784;50.94667800;7.08448400;2022-12-16T12:13:07;0.20;99.90
17333;DHT22;8784;50.94667800;7.08448400;2022-12-16T12:16:01;0.20;99.90
17333;DHT22;8784;50.94667800;7.08448400;2022-12-16T12:18:51;0.30;99.90
17333;DHT22;8784;50.94667800;7.08448400;2022-12-16T12:21:42;0.30;99.90
17333;DHT22;8784;50.94667800;7.08448400;2022-12-16T12:24:36;0.40;99.90
17333;DHT22;8784;50.94667800;7.08448400;2022-12-16T12:27:30;0.40;99.90
17333;DHT22;8784;50.94667800;7.08448400;2022-12-16T12:30:19;0.50;99.90
17333;DHT22;8784;50.94667800;7.08448400;2022-12-16T12:33:23;0.40;99.90
17333;DHT22;8784;50.94667800;7.08448400;2022-12-16T12:36:16;0.50;99.90
17333;DHT22;8784;50.94667800;7.08448400;2022-12-16T12:39:13;0.50;99.90
17333;DHT22;8784;50.94667800;7.08448400;2022-12-16T12:42:10;0.60;99.90
17333;DHT22;8784;50.94667800;7.08448400;2022-12-16T12:45:25;0.60;99.90
17333;DHT22;8784;50.94667800;7.08448400;2022-12-16T12:48:17;0.60;99.90
17333;DHT22;8784;50.94667800;7.08448400;2022-12-16T12:51:11;0.60;99.90
17333;DHT22;8784;50.94667800;7.08448400;2022-12-16T12:54:04;0.70;99.90
17333;DHT22;8784;50.94667800;7.08448400;2022-12-16T12:56:52;0.70;99.90
17333;DHT22;8784;50.94667800;7.08448400;2022-12-16T12:59:45;0.70;99.90
17333;DHT22;8784;50.94667800;7.08448400;2022-12-16T13:02:43;0.90;99.90
17333;DHT22;8784;50.94667800;7.08448400;2022-12-16T13:05:31;0.90;99.90
17333;DHT22;8784;50.94667800;7.08448400;2022-12-16T13:08:40;1.00;99.90
17333;DHT22;8784;50.94667800;7.08448400;2022-12-16T13:11:25;1.10;99.90
17333;DHT22;8784;50.94667800;7.08448400;2022-12-16T13:20:56;1.10;99.90
17333;DHT22;8784;50.94667800;7.08448400;2022-12-16T13:23:41;1.20;99.90
17333;DHT22;8784;50.94667800;7.08448400;2022-12-16T13:26:28;1.10;99.90
17333;DHT22;8784;50.94667800;7.08448400;2022-12-16T13:29:19;1.20;99.90
17333;DHT22;8784;50.94667800;7.08448400;2022-12-16T13:32:15;1.20;99.90
17333;DHT22;8784;50.94667800;7.08448400;2022-12-16T13:35:02;1.30;99.90
17333;DHT22;8784;50.94667800;7.08448400;2022-12-16T13:37:52;1.30;99.90
17333;DHT22;8784;50.94667800;7.08448400;2022-12-16T13:40:52;1.30;99.90
17333;DHT22;8784;50.94667800;7.08448400;2022-12-16T13:43:47;1.30;99.90
17333;DHT22;8784;50.94667800;7.08448400;2022-12-16T13:46:40;1.30;99.90
17333;DHT22;8784;50.94667800;7.08448400;2022-12-16T13:49:42;1.40;99.90
17333;DHT22;8784;50.94667800;7.08448400;2022-12-16T13:52:34;1.30;99.90
17333;DHT22;8784;50.94667800;7.08448400;2022-12-16T13:55:27;1.30;99.90
17333;DHT22;8784;50.94667800;7.08448400;2022-12-16T13:58:30;1.20;99.90
17333;DHT22;8784;50.94667800;7.08448400;2022-12-16T14:01:21;1.20;99.90
17333;DHT22;8784;50.94667800;7.08448400;2022-12-16T14:04:09;1.10;99.90
17333;DHT22;8784;50.94667800;7.08448400;2022-12-16T14:06:58;1.10;99.90
17333;DHT22;8784;50.94667800;7.08448400;2022-12-16T14:09:47;1.10;99.90
17333;DHT22;8784;50.94667800;7.08448400;2022-12-16T14:12:58;1.00;99.90
17333;DHT22;8784;50.94667800;7.08448400;2022-12-16T14:15:53;1.00;99.90
17333;DHT22;8784;50.94667800;7.08448400;2022-12-16T14:18:48;1.10;99.90
17333;DHT22;8784;50.94667800;7.08448400;2022-12-16T14:21:41;1.00;99.90
17333;DHT22;8784;50.94667800;7.08448400;2022-12-16T14:24:28;0.90;99.90
17333;DHT22;8784;50.94667800;7.08448400;2022-12-16T14:27:15;0.90;99.90
17333;DHT22;8784;50.94667800;7.08448400;2022-12-16T14:30:15;0.90;99.90
17333;DHT22;8784;50.94667800;7.08448400;2022-12-16T14:32:59;0.80;99.90
17333;DHT22;8784;50.94667800;7.08448400;2022-12-16T14:35:47;0.80;99.90
17333;DHT22;8784;50.94667800;7.08448400;2022-12-16T14:38:34;0.80;99.90
17333;DHT22;8784;50.94667800;7.08448400;2022-12-16T14:41:20;0.70;99.90
17333;DHT22;8784;50.94667800;7.08448400;2022-12-16T14:44:15;0.70;99.90
17333;DHT22;8784;50.94667800;7.08448400;2022-12-16T14:47:02;0.70;99.90
17333;DHT22;8784;50.94667800;7.08448400;2022-12-16T14:49:49;0.60;99.90
17333;DHT22;8784;50.94667800;7.08448400;2022-12-16T14:52:33;0.60;99.90
17333;DHT22;8784;50.94667800;7.08448400;2022-12-16T14:55:24;0.40;99.90
17333;DHT22;8784;50.94667800;7.08448400;2022-12-16T14:58:11;0.40;99.90
17333;DHT22;8784;50.94667800;7.08448400;2022-12-16T15:00:58;0.30;99.90
17333;DHT22;8784;50.94667800;7.08448400;2022-12-16T15:03:46;0.20;99.90
17333;DHT22;8784;50.94667800;7.08448400;2022-12-16T15:06:37;0.20;99.90
17333;DHT22;8784;50.94667800;7.08448400;2022-12-16T15:09:26;0.20;99.90
17333;DHT22;8784;50.94667800;7.08448400;2022-12-16T15:12:13;0.10;99.90
17333;DHT22;8784;50.94667800;7.08448400;2022-12-16T15:15:00;0.10;99.90